createdAt,value
2022-09-28T00:00:08.531Z,96058.97
2022-09-28T00:02:09.910Z,96054.84
2022-09-28T00:04:11.574Z,96063.66
2022-09-28T00:06:12.831Z,96062.97
2022-09-28T00:08:14.127Z,96061.41
2022-09-28T00:10:16.046Z,96057.28
2022-09-28T00:12:18.410Z,96059.16
2022-09-28T00:14:19.736Z,96053.34
2022-09-28T00:16:21.073Z,96055.94
2022-09-28T00:18:22.358Z,96047.66
2022-09-28T00:20:23.637Z,96049.53
2022-09-28T00:22:24.948Z,96049.69
2022-09-28T00:24:27.916Z,96046.41
2022-09-28T00:26:29.269Z,96048.03
2022-09-28T00:28:31.419Z,96054.06
2022-09-28T00:30:32.710Z,96048.94
2022-09-28T00:32:34.035Z,96051.56
2022-09-28T00:34:35.400Z,96043.91
2022-09-28T00:36:36.766Z,96047.28
2022-09-28T00:38:40.592Z,96039.38
2022-09-28T00:40:41.930Z,96042.78
2022-09-28T00:42:43.275Z,96042.03
2022-09-28T00:44:44.581Z,96045.41
2022-09-28T00:46:45.894Z,96039.47
2022-09-28T00:48:47.171Z,96034.47
2022-09-28T00:50:48.490Z,96037.03
2022-09-28T00:52:49.845Z,96039.47
2022-09-28T00:54:51.119Z,96033.53
2022-09-28T00:56:52.406Z,96032.66
2022-09-28T00:58:54.690Z,96035.13
2022-09-28T01:00:56.340Z,96037.81
2022-09-28T01:02:57.955Z,96043.28
2022-09-28T01:04:59.341Z,96032.38
2022-09-28T01:07:00.631Z,96031.66
2022-09-28T01:09:03.050Z,96032.63
2022-09-28T01:11:04.707Z,96030.16
2022-09-28T01:13:05.995Z,96028.53
2022-09-28T01:15:07.322Z,96029.47
2022-09-28T01:17:08.906Z,96029.41
2022-09-28T01:19:10.293Z,96034.50
2022-09-28T01:21:11.656Z,96031.13
2022-09-28T01:23:13.843Z,96023.56
2022-09-28T01:25:15.123Z,96021.09
2022-09-28T01:27:16.428Z,96018.63
2022-09-28T01:29:17.869Z,96019.47
2022-09-28T01:31:19.247Z,96014.34
2022-09-28T01:33:20.848Z,96013.53
2022-09-28T01:35:22.174Z,96016.91
2022-09-28T01:37:23.502Z,96015.16
2022-09-28T01:39:24.872Z,96011.56
2022-09-28T01:41:26.145Z,96009.00
2022-09-28T01:43:27.451Z,96009.06
2022-09-28T01:45:28.816Z,96010.00
2022-09-28T01:47:30.160Z,96013.28
2022-09-28T01:49:31.468Z,96012.38
2022-09-28T01:51:32.742Z,96002.03
2022-09-28T01:53:34.019Z,96006.94
2022-09-28T01:55:35.347Z,96009.44
2022-09-28T01:57:36.616Z,96006.78
2022-09-28T01:59:37.903Z,95999.06
2022-09-28T02:01:39.236Z,95992.97
2022-09-28T02:03:40.586Z,96002.75
2022-09-28T02:05:41.949Z,95999.81
2022-09-28T02:07:43.430Z,96004.75
2022-09-28T02:09:44.716Z,95997.03
2022-09-28T02:11:45.993Z,95991.00
2022-09-28T02:13:47.277Z,95992.56
2022-09-28T02:15:48.558Z,95997.59
2022-09-28T02:17:49.827Z,95994.22
2022-09-28T02:19:51.443Z,95995.84
2022-09-28T02:21:52.724Z,95985.63
2022-09-28T02:23:54.016Z,95982.28
2022-09-28T02:25:55.343Z,95983.19
2022-09-28T02:27:56.662Z,95992.56
2022-09-28T02:29:57.923Z,95987.63
2022-09-28T02:31:59.194Z,95993.66
2022-09-28T02:34:00.686Z,95989.44
2022-09-28T02:36:03.508Z,95986.72
2022-09-28T02:38:04.790Z,95982.44
2022-09-28T02:40:06.102Z,95985.00
2022-09-28T02:42:07.445Z,95986.72
2022-09-28T02:44:08.730Z,95979.91
2022-09-28T02:46:10.164Z,95978.97
2022-09-28T02:48:11.462Z,95979.81
2022-09-28T02:50:13.112Z,95971.09
2022-09-28T02:52:14.449Z,95978.66
2022-09-28T02:54:18.783Z,95968.44
2022-09-28T02:56:20.322Z,95970.91
2022-09-28T02:58:21.610Z,95969.19
2022-09-28T03:00:22.932Z,95970.00
2022-09-28T03:02:25.002Z,95961.53
2022-09-28T03:04:26.331Z,95969.91
2022-09-28T03:06:27.625Z,95963.09
2022-09-28T03:08:28.891Z,95972.47
2022-09-28T03:10:30.230Z,95972.47
2022-09-28T03:12:33.249Z,95971.56
2022-09-28T03:14:34.539Z,95975.09
2022-09-28T03:16:35.963Z,95972.47
2022-09-28T03:18:38.500Z,95968.94
2022-09-28T03:20:39.783Z,95960.47
2022-09-28T03:22:41.058Z,95961.28
2022-09-28T03:24:42.326Z,95951.97
2022-09-28T03:26:43.657Z,95952.81
2022-09-28T03:28:45.110Z,95945.16
2022-09-28T03:30:46.372Z,95952.03
2022-09-28T03:32:47.635Z,95943.66
2022-09-28T03:34:48.988Z,95947.19
2022-09-28T03:36:50.254Z,95943.75
2022-09-28T03:38:51.544Z,95946.16
2022-09-28T03:40:52.911Z,95938.38
2022-09-28T03:42:54.246Z,95935.00
2022-09-28T03:44:55.722Z,95934.94
2022-09-28T03:46:56.998Z,95928.91
2022-09-28T03:48:59.268Z,95936.56
2022-09-28T03:51:00.687Z,95928.00
2022-09-28T03:53:02.235Z,95928.69
2022-09-28T03:55:03.546Z,95930.19
2022-09-28T03:57:04.870Z,95923.25
2022-09-28T03:59:06.161Z,95928.28
2022-09-28T04:01:07.584Z,95930.91
2022-09-28T04:03:09.446Z,95926.72
2022-09-28T04:05:10.813Z,95922.44
2022-09-28T04:07:12.143Z,95924.31
2022-09-28T04:09:13.567Z,95911.59
2022-09-28T04:11:14.899Z,95917.72
2022-09-28T04:13:16.378Z,95914.44
2022-09-28T04:15:17.643Z,95911.22
2022-09-28T04:17:18.923Z,95913.84
2022-09-28T04:19:20.238Z,95917.06
2022-09-28T04:21:21.531Z,95924.72
2022-09-28T04:23:23.018Z,95912.88
2022-09-28T04:25:24.300Z,95923.97
2022-09-28T04:27:44.319Z,95919.63
2022-09-28T04:29:45.583Z,95922.00
2022-09-28T04:31:46.946Z,95921.09
2022-09-28T04:33:48.255Z,95926.03
2022-09-28T04:35:49.574Z,95920.94
2022-09-28T04:37:50.842Z,95923.41
2022-09-28T04:39:52.111Z,95923.34
2022-09-28T04:41:53.459Z,95925.78
2022-09-28T04:43:54.828Z,95922.34
2022-09-28T04:45:56.111Z,95923.25
2022-09-28T04:47:57.471Z,95929.19
2022-09-28T04:49:58.725Z,95921.53
2022-09-28T04:52:00.038Z,95923.19
2022-09-28T04:54:01.299Z,95920.63
2022-09-28T04:56:02.598Z,95914.78
2022-09-28T04:58:03.900Z,95910.41
2022-09-28T05:00:05.439Z,95916.34
2022-09-28T05:02:06.794Z,95908.69
2022-09-28T05:04:08.117Z,95904.38
2022-09-28T05:06:09.432Z,95897.66
2022-09-28T05:08:11.105Z,95907.75
2022-09-28T05:10:12.405Z,95917.06
2022-09-28T05:12:13.705Z,95897.38
2022-09-28T05:14:15.031Z,95902.59
2022-09-28T05:16:16.437Z,95894.81
2022-09-28T05:18:17.771Z,95894.00
2022-09-28T05:20:19.061Z,95882.16
2022-09-28T05:22:20.322Z,95882.91
2022-09-28T05:24:21.598Z,95872.50
2022-09-28T05:26:22.910Z,95875.97
2022-09-28T05:28:24.302Z,95862.56
2022-09-28T05:30:25.638Z,95862.63
2022-09-28T05:32:26.906Z,95861.09
2022-09-28T05:34:28.207Z,95862.91
2022-09-28T05:36:32.499Z,95856.97
2022-09-28T05:38:33.826Z,95856.06
2022-09-28T05:40:35.198Z,95862.09
2022-09-28T05:42:36.551Z,95852.69
2022-09-28T05:44:38.511Z,95862.91
2022-09-28T05:46:39.853Z,95864.63
2022-09-28T05:48:41.144Z,95860.38
2022-09-28T05:50:42.603Z,95857.84
2022-09-28T05:52:44.478Z,95859.53
2022-09-28T05:54:45.812Z,95857.03
2022-09-28T05:56:47.123Z,95859.66
2022-09-28T05:58:48.453Z,95862.38
2022-09-28T06:00:49.768Z,95856.66
2022-09-28T06:02:51.165Z,95851.63
2022-09-28T06:04:53.792Z,95848.34
2022-09-28T06:06:55.070Z,95847.50
2022-09-28T06:08:56.375Z,95835.47
2022-09-28T06:10:57.639Z,95838.84
2022-09-28T06:12:58.969Z,95838.84
2022-09-28T06:15:01.238Z,95841.34
2022-09-28T06:17:02.575Z,95837.59
2022-09-28T06:19:03.906Z,95846.66
2022-09-28T06:21:08.247Z,95844.88
2022-09-28T06:23:09.915Z,95852.53
2022-09-28T06:25:11.195Z,95853.31
2022-09-28T06:27:12.462Z,95843.13
2022-09-28T06:29:19.648Z,95835.47
2022-09-28T06:31:23.816Z,95839.66
2022-09-28T06:33:26.737Z,95830.28
2022-09-28T06:35:28.006Z,95821.91
2022-09-28T06:37:29.307Z,95815.97
2022-09-28T06:39:30.590Z,95815.03
2022-09-28T06:41:31.863Z,95808.13
2022-09-28T06:43:35.023Z,95809.75
2022-09-28T06:45:36.283Z,95802.94
2022-09-28T06:47:37.747Z,95809.75
2022-09-28T06:49:39.027Z,95797.75
2022-09-28T06:51:40.305Z,95796.91
2022-09-28T06:53:41.628Z,95795.38
2022-09-28T06:55:42.902Z,95789.16
2022-09-28T06:57:44.215Z,95786.97
2022-09-28T06:59:45.564Z,95784.91
2022-09-28T07:01:46.917Z,95799.00
2022-09-28T07:03:51.440Z,95795.53
2022-09-28T07:05:54.976Z,95800.41
2022-09-28T07:07:56.368Z,95806.00
2022-09-28T07:09:57.654Z,95810.66
2022-09-28T07:11:58.931Z,95810.91
2022-09-28T07:14:00.207Z,95814.44
2022-09-28T07:16:01.905Z,95820.81
2022-09-28T07:18:04.066Z,95822.69
2022-09-28T07:20:16.631Z,95823.53
2022-09-28T07:22:21.141Z,95822.53
2022-09-28T07:24:23.465Z,95814.03
2022-09-28T07:26:25.671Z,95816.69
2022-09-28T07:28:26.996Z,95809.88
2022-09-28T07:30:28.365Z,95815.97
2022-09-28T07:34:44.025Z,95814.41
2022-09-28T07:36:45.302Z,95821.22
2022-09-28T07:38:46.610Z,95815.41
2022-09-28T07:41:06.787Z,95827.31
2022-09-28T07:43:08.127Z,95822.38
2022-09-28T07:45:09.408Z,95831.03
2022-09-28T07:47:10.678Z,95832.09
2022-09-28T07:49:12.745Z,95842.44
2022-09-28T07:51:14.087Z,95827.25
2022-09-28T07:53:15.428Z,95823.03
2022-09-28T07:55:16.701Z,95828.13
2022-09-28T07:57:18.110Z,95823.88
2022-09-28T07:59:20.332Z,95829.81
2022-09-28T08:01:21.749Z,95822.88
2022-09-28T08:03:23.116Z,95829.63
2022-09-28T08:05:24.619Z,95833.75
2022-09-28T08:07:25.930Z,95695.53
2022-09-28T08:09:27.218Z,95830.22
2022-09-28T08:11:28.521Z,95828.47
2022-09-28T08:13:31.124Z,95836.13
2022-09-28T08:15:36.439Z,95821.00
2022-09-28T08:17:37.712Z,95824.44
2022-09-28T08:19:57.639Z,95811.84
2022-09-28T08:21:59.090Z,95815.50
2022-09-28T08:24:00.532Z,95814.75
2022-09-28T08:26:01.857Z,95813.19
2022-09-28T08:28:03.162Z,95826.00
2022-09-28T08:30:04.454Z,95819.44
2022-09-28T08:32:08.055Z,95816.13
2022-09-28T08:34:09.387Z,95818.78
2022-09-28T08:36:10.669Z,95817.31
2022-09-28T08:38:12.151Z,95819.91
2022-09-28T08:40:13.635Z,95821.72
2022-09-28T08:42:15.699Z,95818.44
2022-09-28T08:44:17.134Z,95811.69
2022-09-28T08:46:18.525Z,95814.22
2022-09-28T08:48:38.802Z,95816.88
2022-09-28T08:50:40.071Z,95821.97
2022-09-28T08:52:41.495Z,95820.31
2022-09-28T08:54:43.019Z,95811.84
2022-09-28T08:56:44.302Z,95812.00
2022-09-28T08:58:45.842Z,95820.56
2022-09-28T09:00:47.478Z,95819.75
2022-09-28T09:02:48.839Z,95821.47
2022-09-28T09:04:51.593Z,95819.00
2022-09-28T09:06:52.934Z,95823.28
2022-09-28T09:08:54.698Z,95816.53
2022-09-28T09:10:55.975Z,95813.16
2022-09-28T09:12:58.668Z,95811.84
2022-09-28T09:15:00.002Z,95817.31
2022-09-28T09:17:01.391Z,95823.53
2022-09-28T09:19:02.850Z,95822.19
2022-09-28T09:21:06.239Z,95818.59
2022-09-28T09:23:07.530Z,95814.25
2022-09-28T09:25:08.804Z,95816.28
2022-09-28T09:27:10.093Z,95815.47
2022-09-28T09:29:11.814Z,95817.13
2022-09-28T09:31:13.108Z,95805.81
2022-09-28T09:33:15.933Z,95819.09
2022-09-28T09:35:17.774Z,95816.72
2022-09-28T09:37:19.667Z,95811.91
2022-09-28T09:39:20.964Z,95818.94
2022-09-28T09:41:22.511Z,95810.94
2022-09-28T09:43:28.004Z,95815.75
2022-09-28T09:45:32.278Z,95811.53
2022-09-28T09:47:33.556Z,95815.84
2022-09-28T09:49:34.871Z,95816.91
2022-09-28T09:51:36.183Z,95819.16
2022-09-28T09:53:38.515Z,95817.06
2022-09-28T09:55:40.686Z,95811.16
2022-09-28T09:57:42.162Z,95820.06
2022-09-28T09:59:44.498Z,95814.56
2022-09-28T10:01:45.881Z,95814.91
2022-09-28T10:03:48.341Z,95817.72
2022-09-28T10:05:49.635Z,95812.03
2022-09-28T10:07:51.136Z,95808.00
2022-09-28T10:09:52.415Z,95808.16
2022-09-28T10:11:54.346Z,95799.78
2022-09-28T10:13:55.763Z,95802.81
2022-09-28T10:15:57.130Z,95801.03
2022-09-28T10:17:58.430Z,95806.88
2022-09-28T10:19:59.714Z,95800.09
2022-09-28T10:22:02.623Z,95801.09
2022-09-28T10:24:03.980Z,95800.38
2022-09-28T10:26:05.257Z,95800.41
2022-09-28T10:28:06.568Z,95786.19
2022-09-28T10:30:08.538Z,95794.81
2022-09-28T10:32:09.868Z,95800.00
2022-09-28T10:34:11.345Z,95789.00
2022-09-28T10:36:12.970Z,95788.16
2022-09-28T10:38:14.279Z,95794.41
2022-09-28T10:40:15.656Z,95797.34
2022-09-28T10:42:16.995Z,95786.88
2022-09-28T10:44:18.811Z,95791.88
2022-09-28T10:46:20.207Z,95796.09
2022-09-28T10:48:21.745Z,95791.81
2022-09-28T10:50:23.066Z,95786.53
2022-09-28T10:52:24.327Z,95777.25
2022-09-28T10:54:25.694Z,95782.50
2022-09-28T10:56:27.015Z,95779.97
2022-09-28T10:58:28.311Z,95778.41
2022-09-28T11:00:29.624Z,95780.94
2022-09-28T11:02:35.465Z,95778.50
2022-09-28T11:04:37.399Z,95777.41
2022-09-28T11:06:38.671Z,95774.69
2022-09-28T11:08:40.172Z,95780.53
2022-09-28T11:10:41.471Z,95777.91
2022-09-28T11:12:42.798Z,95770.31
2022-09-28T11:14:44.358Z,95773.81
2022-09-28T11:16:45.743Z,95777.38
2022-09-28T11:18:47.120Z,95777.75
2022-09-28T11:20:49.528Z,95769.75
2022-09-28T11:22:53.543Z,95765.16
2022-09-28T11:24:54.948Z,95764.69
2022-09-28T11:27:02.192Z,95754.22
2022-09-28T11:29:04.520Z,95753.63
2022-09-28T11:31:07.232Z,95753.78
2022-09-28T11:33:09.159Z,95761.59
2022-09-28T11:35:10.466Z,95762.69
2022-09-28T11:37:11.739Z,95759.41
2022-09-28T11:39:13.234Z,95758.47
2022-09-28T11:41:14.530Z,95754.13
2022-09-28T11:43:16.797Z,95754.13
2022-09-28T11:45:18.466Z,95755.09
2022-09-28T11:47:20.415Z,95760.28
2022-09-28T11:49:21.702Z,95756.19
2022-09-28T11:51:22.979Z,95759.56
2022-09-28T11:53:24.255Z,95756.91
2022-09-28T11:55:25.582Z,95751.66
2022-09-28T11:57:26.851Z,95765.22
2022-09-28T11:59:30.135Z,95762.84
2022-09-28T12:01:35.507Z,95760.47
2022-09-28T12:03:36.921Z,95758.00
2022-09-28T12:05:38.275Z,95760.63
2022-09-28T12:07:39.618Z,95762.28
2022-09-28T12:09:40.889Z,95769.91
2022-09-28T12:11:43.866Z,95764.00
2022-09-28T12:13:45.163Z,95758.81
2022-09-28T12:16:12.944Z,95751.91
2022-09-28T12:18:07.845Z,95765.41
2022-09-28T12:20:09.223Z,95759.41
2022-09-28T12:22:10.910Z,95760.13
2022-09-28T12:24:12.183Z,95756.75
2022-09-28T12:26:13.480Z,95755.88
2022-09-28T12:28:14.807Z,95764.31
2022-09-28T12:30:16.132Z,95756.50
2022-09-28T12:32:17.461Z,95758.25
2022-09-28T12:34:18.783Z,95749.84
2022-09-28T12:36:20.063Z,95750.66
2022-09-28T12:38:21.406Z,95754.88
2022-09-28T12:40:22.723Z,95752.16
2022-09-28T12:42:27.643Z,95756.34
2022-09-28T12:44:29.030Z,95749.13
2022-09-28T12:46:30.375Z,95747.81
2022-09-28T12:48:31.775Z,95741.44
2022-09-28T12:50:38.483Z,95733.34
2022-09-28T12:54:47.536Z,95730.44
2022-09-28T12:56:48.831Z,95732.84
2022-09-28T12:58:50.767Z,95736.75
2022-09-28T13:00:52.182Z,95735.53
2022-09-28T13:02:53.578Z,95742.53
2022-09-28T13:04:54.880Z,95738.59
2022-09-28T13:06:56.191Z,95734.31
2022-09-28T13:08:57.635Z,95734.22
2022-09-28T13:10:58.924Z,95737.34
2022-09-28T13:13:00.199Z,95741.66
2022-09-28T13:15:01.537Z,95737.88
2022-09-28T13:17:02.809Z,95736.47
2022-09-28T13:19:04.119Z,95753.63
2022-09-28T13:21:05.447Z,95752.16
2022-09-28T13:23:06.826Z,95745.50
2022-09-28T13:25:08.094Z,95761.59
2022-09-28T13:27:10.254Z,95755.78
2022-09-28T13:29:11.629Z,95757.75
2022-09-28T13:31:13.079Z,95760.56
2022-09-28T13:33:14.391Z,95764.97
2022-09-28T13:35:15.720Z,95767.63
2022-09-28T13:37:17.026Z,95769.34
2022-09-28T13:39:18.346Z,95764.31
2022-09-28T13:41:19.669Z,95765.16
2022-09-28T13:43:20.963Z,95771.13
2022-09-28T13:45:22.294Z,95771.06
2022-09-28T13:47:24.678Z,95783.72
2022-09-28T13:49:26.007Z,95775.44
2022-09-28T13:51:27.345Z,95777.00
2022-09-28T13:53:28.634Z,95779.72
2022-09-28T13:55:32.126Z,95779.88
2022-09-28T13:57:33.565Z,95786.53
2022-09-28T13:59:34.842Z,95782.94
2022-09-28T14:01:36.224Z,95786.38
2022-09-28T14:03:37.604Z,95784.81
2022-09-28T14:05:38.906Z,95793.28
2022-09-28T14:07:40.509Z,95801.94
2022-09-28T14:09:41.803Z,95795.31
2022-09-28T14:11:43.191Z,95796.38
2022-09-28T14:13:44.496Z,95801.66
2022-09-28T14:15:45.989Z,95803.53
2022-09-28T14:17:50.066Z,95812.16
2022-09-28T14:19:51.383Z,95813.09
2022-09-28T14:21:52.696Z,95813.16
2022-09-28T14:23:58.924Z,95813.16
2022-09-28T14:26:01.323Z,95820.88
2022-09-28T14:28:02.626Z,95821.72
2022-09-28T14:30:03.887Z,95829.38
2022-09-28T14:32:05.394Z,95828.53
2022-09-28T14:34:13.966Z,95836.09
2022-09-28T14:36:35.199Z,95837.00
2022-09-28T14:38:55.178Z,95833.63
2022-09-28T14:41:12.563Z,95836.19
2022-09-28T14:43:13.895Z,95844.72
2022-09-28T14:45:15.386Z,95849.91
2022-09-28T14:47:16.651Z,95852.47
2022-09-28T14:49:19.129Z,95849.06
2022-09-28T14:51:20.465Z,95842.16
2022-09-28T14:53:21.817Z,95850.53
2022-09-28T14:55:23.615Z,95850.47
2022-09-28T14:57:25.116Z,95855.25
2022-09-28T14:59:26.430Z,95857.31
2022-09-28T15:01:27.734Z,95865.06
2022-09-28T15:03:29.053Z,95869.78
2022-09-28T15:05:30.428Z,95866.16
2022-09-28T15:07:35.695Z,95865.25
2022-09-28T15:09:36.972Z,95863.53
2022-09-28T15:11:38.242Z,95870.44
2022-09-28T15:13:40.837Z,95871.88
2022-09-28T15:15:42.326Z,95874.84
2022-09-28T15:17:43.962Z,95875.97
2022-09-28T15:19:45.235Z,95879.41
2022-09-28T15:21:48.662Z,95881.22
2022-09-28T15:23:50.843Z,95883.09
2022-09-28T15:25:52.163Z,95897.66
2022-09-28T15:27:54.425Z,95894.28
2022-09-28T15:29:55.845Z,95894.38
2022-09-28T15:31:57.207Z,95891.00
2022-09-28T15:34:17.487Z,95899.38
2022-09-28T15:36:19.548Z,95896.81
2022-09-28T15:38:20.916Z,95910.34
2022-09-28T15:40:22.510Z,95909.34
2022-09-28T15:42:23.920Z,95911.91
2022-09-28T15:44:25.343Z,95905.88
2022-09-28T15:46:26.671Z,95905.88
2022-09-28T15:48:29.052Z,95916.00
2022-09-28T15:50:30.324Z,95909.16
2022-09-28T15:52:33.984Z,95913.38
2022-09-28T15:54:35.574Z,95925.13
2022-09-28T15:56:36.931Z,95926.78
2022-09-28T15:58:38.223Z,95925.13
2022-09-28T16:00:40.273Z,95933.59
2022-09-28T16:02:41.643Z,95936.25
2022-09-28T16:04:43.161Z,95938.78
2022-09-28T16:06:44.473Z,95944.03
2022-09-28T16:08:46.155Z,95939.09
2022-09-28T16:10:47.434Z,95941.81
2022-09-28T16:12:48.767Z,95943.53
2022-09-28T16:14:50.146Z,95940.28
2022-09-28T16:16:51.814Z,95941.28
2022-09-28T16:18:55.277Z,95946.47
2022-09-28T16:20:56.591Z,95951.56
2022-09-28T16:22:59.646Z,95947.44
2022-09-28T16:25:00.965Z,95951.63
2022-09-28T16:27:03.144Z,95960.09
2022-09-28T16:29:04.926Z,95966.00
2022-09-28T16:31:07.202Z,95969.31
2022-09-28T16:33:08.530Z,95971.06
2022-09-28T16:35:12.867Z,95972.69
2022-09-28T16:37:14.178Z,95973.50
2022-09-28T16:39:16.461Z,95973.59
2022-09-28T16:41:19.501Z,95978.69
2022-09-28T16:43:20.788Z,95978.50
2022-09-28T16:45:23.224Z,95984.53
2022-09-28T16:47:24.503Z,95993.00
2022-09-28T16:49:26.795Z,95997.34
2022-09-28T16:51:28.582Z,95994.00
2022-09-28T16:53:48.575Z,95997.41
2022-09-28T16:55:49.945Z,95993.22
2022-09-28T16:57:51.220Z,96002.66
2022-09-28T16:59:52.495Z,96001.19
2022-09-28T17:01:56.617Z,96004.69
2022-09-28T17:03:57.973Z,96008.13
2022-09-28T17:05:59.282Z,96009.13
2022-09-28T17:08:00.774Z,96013.47
2022-09-28T17:10:02.048Z,96011.81
2022-09-28T17:12:03.582Z,96005.00
2022-09-28T17:14:04.855Z,96020.19
2022-09-28T17:16:10.410Z,96006.47
2022-09-28T17:18:12.502Z,96016.53
2022-09-28T17:20:13.825Z,96018.94
2022-09-28T17:22:16.716Z,96018.78
2022-09-28T17:24:18.212Z,96022.91
2022-09-28T17:26:19.971Z,96029.41
2022-09-28T17:28:21.257Z,96022.38
2022-09-28T17:30:25.151Z,96026.41
2022-09-28T17:32:27.184Z,96031.34
2022-09-28T17:34:28.811Z,96033.84
2022-09-28T17:36:30.590Z,96035.41
2022-09-28T17:38:32.379Z,96042.13
2022-09-28T17:40:34.919Z,96031.94
2022-09-28T17:42:36.271Z,96041.25
2022-09-28T17:44:37.562Z,96037.88
2022-09-28T17:46:39.507Z,96036.25
2022-09-28T17:48:40.939Z,96035.41
2022-09-28T17:50:46.288Z,96036.28
2022-09-28T17:52:50.829Z,96043.19
2022-09-28T17:54:53.188Z,96036.44
2022-09-28T17:56:54.460Z,96039.13
2022-09-28T17:58:55.724Z,96038.25
2022-09-28T18:00:57.030Z,96036.59
2022-09-28T18:02:58.438Z,96034.13
2022-09-28T18:04:59.742Z,96036.78
2022-09-28T18:07:01.093Z,96036.91
2022-09-28T18:09:05.261Z,96039.53
2022-09-28T18:11:06.556Z,96039.53
2022-09-28T18:13:08.055Z,96043.00
2022-09-28T18:15:09.873Z,96050.63
2022-09-28T18:17:11.164Z,96035.41
2022-09-28T18:19:12.623Z,96045.59
2022-09-28T18:21:13.901Z,96044.72
2022-09-28T18:23:15.241Z,96047.31
2022-09-28T18:25:16.521Z,96047.41
2022-09-28T18:27:17.805Z,96052.59
2022-09-28T18:29:19.108Z,96053.38
2022-09-28T18:31:20.486Z,96056.84
2022-09-28T18:33:21.856Z,96061.94
2022-09-28T18:35:24.746Z,96070.44
2022-09-28T18:37:26.077Z,96071.22
2022-09-28T18:39:27.360Z,96066.22
2022-09-28T18:41:29.311Z,96067.94
2022-09-28T18:43:34.347Z,96067.09
2022-09-28T18:45:37.799Z,96067.09
2022-09-28T18:47:39.297Z,96081.56
2022-09-28T18:49:45.896Z,96084.94
2022-09-28T18:51:47.907Z,96081.50
2022-09-28T18:53:49.196Z,96083.97
2022-09-28T18:55:50.485Z,96078.81
2022-09-28T18:57:52.420Z,96079.66
2022-09-28T18:59:53.810Z,96087.94
2022-09-28T19:01:55.175Z,96086.16
2022-09-28T19:03:56.739Z,95933.59
2022-09-28T19:05:58.004Z,96084.28
2022-09-28T19:07:59.743Z,96089.16
2022-09-28T19:10:01.652Z,96085.69
2022-09-28T19:12:02.926Z,96087.28
2022-09-28T19:14:04.196Z,96085.41
2022-09-28T19:16:05.741Z,96089.63
2022-09-28T19:18:07.214Z,96097.28
2022-09-28T19:20:08.521Z,96089.63
2022-09-28T19:22:10.009Z,96093.88
2022-09-28T19:24:11.289Z,96095.59
2022-09-28T19:26:12.579Z,96098.22
2022-09-28T19:28:13.854Z,96094.88
2022-09-28T19:30:16.534Z,96105.84
2022-09-28T19:32:17.952Z,96101.75
2022-09-28T19:34:19.387Z,96100.94
2022-09-28T19:36:21.808Z,96098.44
2022-09-28T19:38:23.238Z,96100.25
2022-09-28T19:40:24.563Z,96097.75
2022-09-28T19:42:25.911Z,96091.91
2022-09-28T19:44:27.644Z,96097.84
2022-09-28T19:46:29.170Z,96098.81
2022-09-28T19:48:30.538Z,96099.66
2022-09-28T19:50:33.259Z,96096.19
2022-09-28T19:52:34.615Z,96106.47
2022-09-28T19:54:36.862Z,96112.41
2022-09-28T19:56:38.195Z,96113.22
2022-09-28T19:58:39.695Z,96112.41
2022-09-28T20:00:41.201Z,96105.59
2022-09-28T20:02:42.516Z,96115.78
2022-09-28T20:04:43.858Z,96116.56
2022-09-28T20:06:45.258Z,96114.13
2022-09-28T20:08:46.567Z,96116.66
2022-09-28T20:10:47.882Z,96122.66
2022-09-28T20:12:49.138Z,96119.22
2022-09-28T20:14:50.426Z,96119.22
2022-09-28T20:16:51.770Z,96123.44
2022-09-28T20:18:55.722Z,96123.47
2022-09-28T20:20:57.308Z,96127.75
2022-09-28T20:22:58.587Z,96126.03
2022-09-28T20:25:00.613Z,96130.28
2022-09-28T20:27:02.498Z,96127.75
2022-09-28T20:29:03.999Z,96134.50
2022-09-28T20:31:05.366Z,96137.78
2022-09-28T20:33:07.425Z,96130.91
2022-09-28T20:35:08.701Z,96132.56
2022-09-28T20:37:12.446Z,96134.97
2022-09-28T20:39:13.723Z,96139.16
2022-09-28T20:41:14.990Z,96140.88
2022-09-28T20:43:16.327Z,96138.41
2022-09-28T20:45:17.606Z,96154.59
2022-09-28T20:47:18.994Z,96152.13
2022-09-28T20:49:20.405Z,96154.81
2022-09-28T20:51:21.884Z,96153.38
2022-09-28T20:53:23.559Z,96153.59
2022-09-28T20:55:24.848Z,96154.66
2022-09-28T20:57:26.275Z,96160.72
2022-09-28T20:59:27.800Z,96165.03
2022-09-28T21:01:30.055Z,96042.88
2022-09-28T21:03:31.856Z,96167.72
2022-09-28T21:05:33.195Z,96170.34
2022-09-28T21:07:34.458Z,96167.81
2022-09-28T21:09:35.718Z,96162.72
2022-09-28T21:11:37.054Z,96171.19
2022-09-28T21:13:41.504Z,96178.84
2022-09-28T21:15:42.837Z,96169.53
2022-09-28T21:17:44.413Z,96173.78
2022-09-28T21:19:45.686Z,96175.38
2022-09-28T21:21:46.950Z,96164.53
2022-09-28T21:23:48.451Z,96164.28
2022-09-28T21:25:49.766Z,96166.09
2022-09-28T21:27:51.082Z,96178.06
2022-09-28T21:29:52.412Z,96185.50
2022-09-28T21:31:53.687Z,96181.56
2022-09-28T21:33:54.950Z,96189.41
2022-09-28T21:35:56.468Z,96193.50
2022-09-28T21:37:57.803Z,96194.06
2022-09-28T21:39:59.566Z,96194.22
2022-09-28T21:42:00.904Z,96198.41
2022-09-28T21:44:02.430Z,96197.03
2022-09-28T21:46:03.762Z,96209.88
2022-09-28T21:48:05.080Z,96209.25
2022-09-28T21:50:06.774Z,96207.75
2022-09-28T21:52:08.086Z,96209.56
2022-09-28T21:54:09.359Z,96213.09
2022-09-28T21:56:10.631Z,96215.66
2022-09-28T21:58:12.146Z,96216.38
2022-09-28T22:00:14.295Z,96214.41
2022-09-28T22:02:15.579Z,96220.94
2022-09-28T22:04:17.179Z,96220.78
2022-09-28T22:06:18.583Z,96218.22
2022-09-28T22:08:19.987Z,96223.28
2022-09-28T22:10:21.296Z,96214.97
2022-09-28T22:12:22.595Z,96213.91
2022-09-28T22:14:23.870Z,96221.78
2022-09-28T22:16:25.411Z,96225.56
2022-09-28T22:18:28.237Z,96224.31
2022-09-28T22:20:29.540Z,96228.59
2022-09-28T22:22:30.802Z,96217.09
2022-09-28T22:24:32.082Z,96221.63
2022-09-28T22:26:33.614Z,96226.09
2022-09-28T22:28:34.896Z,96225.13
2022-09-28T22:30:36.430Z,96230.72
2022-09-28T22:32:37.737Z,96230.72
2022-09-28T22:34:39.059Z,96235.41
2022-09-28T22:36:40.342Z,96230.00
2022-09-28T22:38:41.610Z,96235.56
2022-09-28T22:40:43.071Z,96240.94
2022-09-28T22:42:44.477Z,96233.78
2022-09-28T22:44:45.926Z,96230.28
2022-09-28T22:46:47.256Z,96236.31
2022-09-28T22:48:49.061Z,96243.06
2022-09-28T22:50:50.391Z,96242.84
2022-09-28T22:52:51.671Z,96245.31
2022-09-28T22:54:53.969Z,96248.88
2022-09-28T22:56:55.238Z,96247.88
2022-09-28T22:58:56.525Z,96244.91
2022-09-28T23:00:57.892Z,96247.00
2022-09-28T23:02:59.242Z,96242.88
2022-09-28T23:05:00.531Z,96246.72
2022-09-28T23:07:01.848Z,96240.63
2022-09-28T23:09:03.158Z,96249.97
2022-09-28T23:11:04.467Z,96242.03
2022-09-28T23:13:05.755Z,96238.66
2022-09-28T23:15:07.257Z,96246.84
2022-09-28T23:17:08.526Z,96243.78
2022-09-28T23:19:09.835Z,96245.00
2022-09-28T23:21:11.126Z,96247.97
2022-09-28T23:23:12.448Z,96244.78
2022-09-28T23:25:13.743Z,96246.75
2022-09-28T23:27:15.016Z,96253.00
2022-09-28T23:29:16.396Z,96250.63
2022-09-28T23:31:17.840Z,96246.66
2022-09-28T23:33:19.182Z,96256.22
2022-09-28T23:35:20.476Z,96255.63
2022-09-28T23:37:21.746Z,96252.47
2022-09-28T23:39:23.062Z,96250.06
2022-09-28T23:41:24.379Z,96254.44
2022-09-28T23:43:25.730Z,96251.19
2022-09-28T23:45:27.403Z,96252.16
2022-09-28T23:47:28.684Z,96256.53
2022-09-28T23:49:29.971Z,96259.09
2022-09-28T23:51:31.573Z,96258.25
2022-09-28T23:53:32.831Z,96124.72
2022-09-28T23:55:34.327Z,96263.34